sensor_id;sensor_type;location;lat;lon;timestamp;temperature;humidity
56046;DHT22;41913;51.030;3.706;2022-12-20T00:02:07;18.90;90.40
56046;DHT22;41913;51.030;3.706;2022-12-20T00:04:32;18.80;90.40
56046;DHT22;41913;51.030;3.706;2022-12-20T00:06:58;18.80;90.50
56046;DHT22;41913;51.030;3.706;2022-12-20T00:09:24;18.80;90.50
56046;DHT22;41913;51.030;3.706;2022-12-20T00:11:49;18.80;90.50
56046;DHT22;41913;51.030;3.706;2022-12-20T00:14:15;18.70;90.50
56046;DHT22;41913;51.030;3.706;2022-12-20T00:16:41;18.70;90.50
56046;DHT22;41913;51.030;3.706;2022-12-20T00:19:08;18.70;90.50
56046;DHT22;41913;51.030;3.706;2022-12-20T00:21:34;18.70;90.50
56046;DHT22;41913;51.030;3.706;2022-12-20T00:24:00;18.70;90.50
56046;DHT22;41913;51.030;3.706;2022-12-20T00:26:27;18.70;90.50
56046;DHT22;41913;51.030;3.706;2022-12-20T00:28:53;18.70;90.60
56046;DHT22;41913;51.030;3.706;2022-12-20T00:31:19;18.70;90.60
56046;DHT22;41913;51.030;3.706;2022-12-20T00:33:47;18.60;90.60
56046;DHT22;41913;51.030;3.706;2022-12-20T00:36:14;18.60;90.60
56046;DHT22;41913;51.030;3.706;2022-12-20T00:38:39;18.60;90.60
56046;DHT22;41913;51.030;3.706;2022-12-20T00:41:06;18.60;90.60
56046;DHT22;41913;51.030;3.706;2022-12-20T00:43:32;18.60;90.60
56046;DHT22;41913;51.030;3.706;2022-12-20T00:45:58;18.50;90.60
56046;DHT22;41913;51.030;3.706;2022-12-20T00:48:24;18.50;90.60
56046;DHT22;41913;51.030;3.706;2022-12-20T00:50:50;18.50;90.60
56046;DHT22;41913;51.030;3.706;2022-12-20T00:53:16;18.50;90.60
56046;DHT22;41913;51.030;3.706;2022-12-20T00:55:42;18.50;90.60
56046;DHT22;41913;51.030;3.706;2022-12-20T00:58:08;18.50;90.60
56046;DHT22;41913;51.030;3.706;2022-12-20T01:00:35;18.50;90.60
56046;DHT22;41913;51.030;3.706;2022-12-20T01:03:01;18.50;90.70
56046;DHT22;41913;51.030;3.706;2022-12-20T01:05:27;18.40;90.60
56046;DHT22;41913;51.030;3.706;2022-12-20T01:07:52;18.40;90.60
56046;DHT22;41913;51.030;3.706;2022-12-20T01:10:18;18.40;90.60
56046;DHT22;41913;51.030;3.706;2022-12-20T01:12:43;18.40;90.60
56046;DHT22;41913;51.030;3.706;2022-12-20T01:15:09;18.40;90.60
56046;DHT22;41913;51.030;3.706;2022-12-20T01:17:35;18.40;90.60
56046;DHT22;41913;51.030;3.706;2022-12-20T01:20:01;18.40;90.60
56046;DHT22;41913;51.030;3.706;2022-12-20T01:22:26;18.40;90.60
56046;DHT22;41913;51.030;3.706;2022-12-20T01:24:53;18.40;90.50
56046;DHT22;41913;51.030;3.706;2022-12-20T01:27:18;18.30;90.50
56046;DHT22;41913;51.030;3.706;2022-12-20T01:29:45;18.30;90.50
56046;DHT22;41913;51.030;3.706;2022-12-20T01:32:10;18.30;90.50
56046;DHT22;41913;51.030;3.706;2022-12-20T01:34:36;18.30;90.50
56046;DHT22;41913;51.030;3.706;2022-12-20T01:37:01;18.30;90.50
56046;DHT22;41913;51.030;3.706;2022-12-20T01:39:27;18.30;90.40
56046;DHT22;41913;51.030;3.706;2022-12-20T01:41:52;18.30;90.40
56046;DHT22;41913;51.030;3.706;2022-12-20T01:46:44;18.20;90.40
56046;DHT22;41913;51.030;3.706;2022-12-20T01:49:12;18.20;90.30
56046;DHT22;41913;51.030;3.706;2022-12-20T01:51:48;18.20;90.30
56046;DHT22;41913;51.030;3.706;2022-12-20T01:54:18;18.20;90.30
56046;DHT22;41913;51.030;3.706;2022-12-20T01:56:46;18.20;90.30
56046;DHT22;41913;51.030;3.706;2022-12-20T01:59:13;18.20;90.30
56046;DHT22;41913;51.030;3.706;2022-12-20T02:01:40;18.20;90.20
56046;DHT22;41913;51.030;3.706;2022-12-20T02:04:06;18.20;90.20
56046;DHT22;41913;51.030;3.706;2022-12-20T02:06:31;18.20;90.20
56046;DHT22;41913;51.030;3.706;2022-12-20T02:08:57;18.20;90.20
56046;DHT22;41913;51.030;3.706;2022-12-20T02:11:31;18.20;90.20
56046;DHT22;41913;51.030;3.706;2022-12-20T02:16:44;18.20;90.10
56046;DHT22;41913;51.030;3.706;2022-12-20T02:22:04;18.10;90.10
56046;DHT22;41913;51.030;3.706;2022-12-20T02:32:43;18.10;90.00
56046;DHT22;41913;51.030;3.706;2022-12-20T02:35:13;18.10;90.00
56046;DHT22;41913;51.030;3.706;2022-12-20T02:37:49;18.10;90.00
56046;DHT22;41913;51.030;3.706;2022-12-20T02:40:16;18.10;90.00
56046;DHT22;41913;51.030;3.706;2022-12-20T02:42:43;18.10;90.00
56046;DHT22;41913;51.030;3.706;2022-12-20T02:45:09;18.10;90.00
56046;DHT22;41913;51.030;3.706;2022-12-20T02:47:45;18.00;89.90
56046;DHT22;41913;51.030;3.706;2022-12-20T02:50:12;18.00;89.90
56046;DHT22;41913;51.030;3.706;2022-12-20T02:52:38;18.00;89.80
56046;DHT22;41913;51.030;3.706;2022-12-20T02:55:04;18.00;89.80
56046;DHT22;41913;51.030;3.706;2022-12-20T03:00:07;18.00;89.70
56046;DHT22;41913;51.030;3.706;2022-12-20T03:02:34;18.00;89.70
56046;DHT22;41913;51.030;3.706;2022-12-20T03:05:20;18.00;89.70
56046;DHT22;41913;51.030;3.706;2022-12-20T03:07:46;18.00;89.70
56046;DHT22;41913;51.030;3.706;2022-12-20T03:10:12;18.00;89.60
56046;DHT22;41913;51.030;3.706;2022-12-20T03:12:37;18.00;89.60
56046;DHT22;41913;51.030;3.706;2022-12-20T03:15:03;18.00;89.60
56046;DHT22;41913;51.030;3.706;2022-12-20T03:17:29;17.90;89.50
56046;DHT22;41913;51.030;3.706;2022-12-20T03:19:54;18.00;89.50
56046;DHT22;41913;51.030;3.706;2022-12-20T03:22:20;17.90;89.50
56046;DHT22;41913;51.030;3.706;2022-12-20T03:24:46;17.90;89.50
56046;DHT22;41913;51.030;3.706;2022-12-20T03:27:11;17.90;89.50
56046;DHT22;41913;51.030;3.706;2022-12-20T03:29:37;17.90;89.50
56046;DHT22;41913;51.030;3.706;2022-12-20T03:32:02;17.90;89.50
56046;DHT22;41913;51.030;3.706;2022-12-20T03:34:28;17.90;89.50
56046;DHT22;41913;51.030;3.706;2022-12-20T03:36:54;17.90;89.40
56046;DHT22;41913;51.030;3.706;2022-12-20T03:39:19;17.90;89.40
56046;DHT22;41913;51.030;3.706;2022-12-20T03:41:45;17.90;89.40
56046;DHT22;41913;51.030;3.706;2022-12-20T03:44:10;17.90;89.40
56046;DHT22;41913;51.030;3.706;2022-12-20T03:46:37;17.90;89.40
56046;DHT22;41913;51.030;3.706;2022-12-20T03:49:02;17.90;89.40
56046;DHT22;41913;51.030;3.706;2022-12-20T03:51:28;17.90;89.90
56046;DHT22;41913;51.030;3.706;2022-12-20T03:53:57;17.90;89.40
56046;DHT22;41913;51.030;3.706;2022-12-20T03:56:22;17.90;89.40
56046;DHT22;41913;51.030;3.706;2022-12-20T03:58:48;17.90;89.40
56046;DHT22;41913;51.030;3.706;2022-12-20T04:01:31;17.80;89.40
56046;DHT22;41913;51.030;3.706;2022-12-20T04:04:01;17.90;89.40
56046;DHT22;41913;51.030;3.706;2022-12-20T04:06:26;17.90;89.40
56046;DHT22;41913;51.030;3.706;2022-12-20T04:08:52;17.80;89.40
56046;DHT22;41913;51.030;3.706;2022-12-20T04:11:17;17.90;89.40
56046;DHT22;41913;51.030;3.706;2022-12-20T04:13:47;17.80;89.30
56046;DHT22;41913;51.030;3.706;2022-12-20T04:16:15;17.80;89.30
56046;DHT22;41913;51.030;3.706;2022-12-20T04:18:41;17.80;89.40
56046;DHT22;41913;51.030;3.706;2022-12-20T04:21:07;17.80;89.40
56046;DHT22;41913;51.030;3.706;2022-12-20T04:23:33;17.80;89.50
56046;DHT22;41913;51.030;3.706;2022-12-20T04:26:01;17.80;89.60
56046;DHT22;41913;51.030;3.706;2022-12-20T04:28:27;17.80;89.60
56046;DHT22;41913;51.030;3.706;2022-12-20T04:30:53;17.90;89.80
56046;DHT22;41913;51.030;3.706;2022-12-20T04:33:18;17.80;89.80
56046;DHT22;41913;51.030;3.706;2022-12-20T04:35:45;17.90;89.90
56046;DHT22;41913;51.030;3.706;2022-12-20T04:38:10;17.90;90.00
56046;DHT22;41913;51.030;3.706;2022-12-20T04:40:36;17.90;90.00
56046;DHT22;41913;51.030;3.706;2022-12-20T04:43:02;17.90;90.00
56046;DHT22;41913;51.030;3.706;2022-12-20T04:45:28;17.90;90.00
56046;DHT22;41913;51.030;3.706;2022-12-20T04:47:53;17.90;90.00
56046;DHT22;41913;51.030;3.706;2022-12-20T04:50:19;17.90;90.10
56046;DHT22;41913;51.030;3.706;2022-12-20T04:52:45;17.80;90.10
56046;DHT22;41913;51.030;3.706;2022-12-20T04:55:29;17.80;90.10
56046;DHT22;41913;51.030;3.706;2022-12-20T04:57:54;17.90;90.10
56046;DHT22;41913;51.030;3.706;2022-12-20T05:00:20;17.90;90.10
56046;DHT22;41913;51.030;3.706;2022-12-20T05:02:46;17.80;90.10
56046;DHT22;41913;51.030;3.706;2022-12-20T05:05:14;17.80;90.10
56046;DHT22;41913;51.030;3.706;2022-12-20T05:07:39;17.80;90.10
56046;DHT22;41913;51.030;3.706;2022-12-20T05:10:05;17.80;90.10
56046;DHT22;41913;51.030;3.706;2022-12-20T05:12:30;17.80;90.10
56046;DHT22;41913;51.030;3.706;2022-12-20T05:14:56;17.80;90.20
56046;DHT22;41913;51.030;3.706;2022-12-20T05:17:22;17.80;90.20
56046;DHT22;41913;51.030;3.706;2022-12-20T05:19:47;17.80;90.20
56046;DHT22;41913;51.030;3.706;2022-12-20T05:22:13;17.80;90.20
56046;DHT22;41913;51.030;3.706;2022-12-20T05:24:57;17.80;90.20
56046;DHT22;41913;51.030;3.706;2022-12-20T05:27:41;17.80;90.20
56046;DHT22;41913;51.030;3.706;2022-12-20T05:30:07;17.80;90.20
56046;DHT22;41913;51.030;3.706;2022-12-20T05:32:33;17.80;90.20
56046;DHT22;41913;51.030;3.706;2022-12-20T05:34:58;17.80;90.20
56046;DHT22;41913;51.030;3.706;2022-12-20T05:37:24;17.80;90.20
56046;DHT22;41913;51.030;3.706;2022-12-20T05:39:50;17.80;90.20
56046;DHT22;41913;51.030;3.706;2022-12-20T05:42:16;17.80;90.20
56046;DHT22;41913;51.030;3.706;2022-12-20T05:44:41;17.80;90.20
56046;DHT22;41913;51.030;3.706;2022-12-20T05:47:07;17.80;90.20
56046;DHT22;41913;51.030;3.706;2022-12-20T05:49:32;17.80;90.20
56046;DHT22;41913;51.030;3.706;2022-12-20T05:51:59;17.80;90.20
56046;DHT22;41913;51.030;3.706;2022-12-20T05:54:25;17.80;90.20
56046;DHT22;41913;51.030;3.706;2022-12-20T05:56:50;17.80;90.20
56046;DHT22;41913;51.030;3.706;2022-12-20T05:59:16;17.80;90.20
56046;DHT22;41913;51.030;3.706;2022-12-20T06:01:42;17.80;90.20
56046;DHT22;41913;51.030;3.706;2022-12-20T06:04:07;17.80;90.20
56046;DHT22;41913;51.030;3.706;2022-12-20T06:06:33;17.80;90.20
56046;DHT22;41913;51.030;3.706;2022-12-20T06:08:59;17.80;90.20
56046;DHT22;41913;51.030;3.706;2022-12-20T06:11:24;17.80;90.20
56046;DHT22;41913;51.030;3.706;2022-12-20T06:13:50;17.80;90.30
56046;DHT22;41913;51.030;3.706;2022-12-20T06:16:15;17.90;90.30
56046;DHT22;41913;51.030;3.706;2022-12-20T06:18:43;17.90;90.60
56046;DHT22;41913;51.030;3.706;2022-12-20T06:21:09;18.00;90.40
56046;DHT22;41913;51.030;3.706;2022-12-20T06:23:34;18.10;90.50
56046;DHT22;41913;51.030;3.706;2022-12-20T06:26:00;18.20;90.50
56046;DHT22;41913;51.030;3.706;2022-12-20T06:28:25;18.30;90.60
56046;DHT22;41913;51.030;3.706;2022-12-20T06:30:54;18.40;90.70
56046;DHT22;41913;51.030;3.706;2022-12-20T06:33:20;18.50;90.70
56046;DHT22;41913;51.030;3.706;2022-12-20T06:35:46;18.60;90.70
56046;DHT22;41913;51.030;3.706;2022-12-20T06:38:13;18.70;90.70
56046;DHT22;41913;51.030;3.706;2022-12-20T06:40:39;18.90;90.70
56046;DHT22;41913;51.030;3.706;2022-12-20T06:43:06;19.00;90.70
56046;DHT22;41913;51.030;3.706;2022-12-20T06:45:32;19.00;90.60
56046;DHT22;41913;51.030;3.706;2022-12-20T06:47:57;19.10;90.60
56046;DHT22;41913;51.030;3.706;2022-12-20T06:50:23;19.20;90.60
56046;DHT22;41913;51.030;3.706;2022-12-20T06:52:49;19.40;90.70
56046;DHT22;41913;51.030;3.706;2022-12-20T06:55:14;19.50;90.80
56046;DHT22;41913;51.030;3.706;2022-12-20T06:57:40;19.70;91.20
56046;DHT22;41913;51.030;3.706;2022-12-20T07:00:06;19.80;91.50
56046;DHT22;41913;51.030;3.706;2022-12-20T07:02:32;19.90;91.40
56046;DHT22;41913;51.030;3.706;2022-12-20T07:04:58;20.00;91.20
56046;DHT22;41913;51.030;3.706;2022-12-20T07:07:24;20.00;91.10
56046;DHT22;41913;51.030;3.706;2022-12-20T07:09:49;20.00;91.10
56046;DHT22;41913;51.030;3.706;2022-12-20T07:12:15;20.00;91.10
56046;DHT22;41913;51.030;3.706;2022-12-20T07:14:40;20.00;91.10
56046;DHT22;41913;51.030;3.706;2022-12-20T07:17:06;20.00;91.10
56046;DHT22;41913;51.030;3.706;2022-12-20T07:19:32;20.00;91.10
56046;DHT22;41913;51.030;3.706;2022-12-20T07:21:58;20.00;91.00
56046;DHT22;41913;51.030;3.706;2022-12-20T07:24:30;20.00;90.90
56046;DHT22;41913;51.030;3.706;2022-12-20T07:29:24;20.00;90.80
56046;DHT22;41913;51.030;3.706;2022-12-20T07:31:56;19.90;90.70
56046;DHT22;41913;51.030;3.706;2022-12-20T07:34:22;19.90;90.70
56046;DHT22;41913;51.030;3.706;2022-12-20T07:36:50;19.90;90.60
56046;DHT22;41913;51.030;3.706;2022-12-20T07:39:15;19.90;90.60
56046;DHT22;41913;51.030;3.706;2022-12-20T07:41:42;19.80;90.50
56046;DHT22;41913;51.030;3.706;2022-12-20T07:44:08;19.90;90.50
56046;DHT22;41913;51.030;3.706;2022-12-20T07:46:39;19.90;90.50
56046;DHT22;41913;51.030;3.706;2022-12-20T07:49:14;19.90;90.60
56046;DHT22;41913;51.030;3.706;2022-12-20T07:51:47;19.90;90.60
56046;DHT22;41913;51.030;3.706;2022-12-20T07:54:23;19.80;90.50
56046;DHT22;41913;51.030;3.706;2022-12-20T07:56:51;19.80;90.50
56046;DHT22;41913;51.030;3.706;2022-12-20T07:59:18;19.80;90.50
56046;DHT22;41913;51.030;3.706;2022-12-20T08:01:44;19.70;90.50
56046;DHT22;41913;51.030;3.706;2022-12-20T08:04:12;19.80;90.50
56046;DHT22;41913;51.030;3.706;2022-12-20T08:06:38;19.80;90.60
56046;DHT22;41913;51.030;3.706;2022-12-20T08:09:05;19.80;90.60
56046;DHT22;41913;51.030;3.706;2022-12-20T08:11:31;19.80;90.60
56046;DHT22;41913;51.030;3.706;2022-12-20T08:13:58;19.80;90.70
56046;DHT22;41913;51.030;3.706;2022-12-20T08:16:23;19.70;90.70
56046;DHT22;41913;51.030;3.706;2022-12-20T08:18:49;19.70;90.70
56046;DHT22;41913;51.030;3.706;2022-12-20T08:21:15;19.70;90.70
56046;DHT22;41913;51.030;3.706;2022-12-20T08:23:40;19.70;90.80
56046;DHT22;41913;51.030;3.706;2022-12-20T08:26:06;19.70;90.80
56046;DHT22;41913;51.030;3.706;2022-12-20T08:28:31;19.70;90.80
56046;DHT22;41913;51.030;3.706;2022-12-20T08:31:03;19.70;90.90
56046;DHT22;41913;51.030;3.706;2022-12-20T08:33:29;19.70;90.90
56046;DHT22;41913;51.030;3.706;2022-12-20T08:35:57;19.70;90.90
56046;DHT22;41913;51.030;3.706;2022-12-20T08:38:24;19.70;90.90
56046;DHT22;41913;51.030;3.706;2022-12-20T08:40:49;19.70;90.90
56046;DHT22;41913;51.030;3.706;2022-12-20T08:43:16;19.60;90.90
56046;DHT22;41913;51.030;3.706;2022-12-20T08:45:41;19.60;91.00
56046;DHT22;41913;51.030;3.706;2022-12-20T08:48:08;19.60;91.00
56046;DHT22;41913;51.030;3.706;2022-12-20T08:50:34;19.70;91.10
56046;DHT22;41913;51.030;3.706;2022-12-20T08:53:00;19.70;91.00
56046;DHT22;41913;51.030;3.706;2022-12-20T08:55:26;19.70;91.00
56046;DHT22;41913;51.030;3.706;2022-12-20T08:57:51;19.70;91.00
56046;DHT22;41913;51.030;3.706;2022-12-20T09:00:17;19.70;91.00
56046;DHT22;41913;51.030;3.706;2022-12-20T09:02:43;19.70;91.00
56046;DHT22;41913;51.030;3.706;2022-12-20T09:05:09;19.70;91.00
56046;DHT22;41913;51.030;3.706;2022-12-20T09:07:34;19.70;91.00
56046;DHT22;41913;51.030;3.706;2022-12-20T09:10:02;19.70;90.90
56046;DHT22;41913;51.030;3.706;2022-12-20T09:12:27;19.80;91.00
56046;DHT22;41913;51.030;3.706;2022-12-20T09:14:55;19.80;91.00
56046;DHT22;41913;51.030;3.706;2022-12-20T09:17:20;19.80;90.90
56046;DHT22;41913;51.030;3.706;2022-12-20T09:19:47;19.80;90.90
56046;DHT22;41913;51.030;3.706;2022-12-20T09:22:13;19.80;90.90
56046;DHT22;41913;51.030;3.706;2022-12-20T09:27:08;19.80;90.90
56046;DHT22;41913;51.030;3.706;2022-12-20T09:29:33;19.70;90.90
56046;DHT22;41913;51.030;3.706;2022-12-20T09:31:59;19.70;90.90
56046;DHT22;41913;51.030;3.706;2022-12-20T09:34:25;19.70;90.90
56046;DHT22;41913;51.030;3.706;2022-12-20T09:36:51;19.80;91.00
56046;DHT22;41913;51.030;3.706;2022-12-20T09:39:17;19.80;90.90
56046;DHT22;41913;51.030;3.706;2022-12-20T09:41:43;19.80;90.90
56046;DHT22;41913;51.030;3.706;2022-12-20T09:46:42;19.80;91.00
56046;DHT22;41913;51.030;3.706;2022-12-20T09:49:16;19.80;91.00
56046;DHT22;41913;51.030;3.706;2022-12-20T09:51:51;19.80;91.00
56046;DHT22;41913;51.030;3.706;2022-12-20T09:54:34;19.80;91.10
56046;DHT22;41913;51.030;3.706;2022-12-20T09:59:32;19.80;91.10
56046;DHT22;41913;51.030;3.706;2022-12-20T10:02:01;19.80;91.10
56046;DHT22;41913;51.030;3.706;2022-12-20T10:04:28;19.80;91.10
56046;DHT22;41913;51.030;3.706;2022-12-20T10:12:30;19.80;91.20
56046;DHT22;41913;51.030;3.706;2022-12-20T10:17:35;19.80;91.30
56046;DHT22;41913;51.030;3.706;2022-12-20T10:25:18;19.80;91.30
56046;DHT22;41913;51.030;3.706;2022-12-20T10:27:44;19.80;91.40
56046;DHT22;41913;51.030;3.706;2022-12-20T10:30:16;19.80;91.40
56046;DHT22;41913;51.030;3.706;2022-12-20T10:32:45;19.70;91.40
56046;DHT22;41913;51.030;3.706;2022-12-20T10:38:02;19.60;91.50
56046;DHT22;41913;51.030;3.706;2022-12-20T10:40:30;19.60;91.60
56046;DHT22;41913;51.030;3.706;2022-12-20T10:42:57;19.60;91.60
56046;DHT22;41913;51.030;3.706;2022-12-20T10:45:25;19.60;91.60
56046;DHT22;41913;51.030;3.706;2022-12-20T10:47:56;19.60;91.60
56046;DHT22;41913;51.030;3.706;2022-12-20T10:50:22;19.60;91.60
56046;DHT22;41913;51.030;3.706;2022-12-20T10:53:03;19.60;91.70
56046;DHT22;41913;51.030;3.706;2022-12-20T10:55:36;19.50;91.70
56046;DHT22;41913;51.030;3.706;2022-12-20T10:58:03;19.50;91.70
56046;DHT22;41913;51.030;3.706;2022-12-20T11:00:29;19.50;91.70
56046;DHT22;41913;51.030;3.706;2022-12-20T11:03:09;19.50;91.80
56046;DHT22;41913;51.030;3.706;2022-12-20T11:05:37;19.50;91.80
56046;DHT22;41913;51.030;3.706;2022-12-20T11:08:15;19.50;91.80
56046;DHT22;41913;51.030;3.706;2022-12-20T11:10:41;19.60;91.80
56046;DHT22;41913;51.030;3.706;2022-12-20T11:13:20;19.50;91.80
56046;DHT22;41913;51.030;3.706;2022-12-20T11:15:47;19.50;91.80
56046;DHT22;41913;51.030;3.706;2022-12-20T11:18:17;19.50;91.80
56046;DHT22;41913;51.030;3.706;2022-12-20T11:31:24;19.50;91.90
56046;DHT22;41913;51.030;3.706;2022-12-20T11:34:01;19.50;91.90
56046;DHT22;41913;51.030;3.706;2022-12-20T11:41:49;19.40;91.90
56046;DHT22;41913;51.030;3.706;2022-12-20T11:49:54;19.50;92.00
56046;DHT22;41913;51.030;3.706;2022-12-20T11:54:55;19.50;92.00
56046;DHT22;41913;51.030;3.706;2022-12-20T12:18:21;19.50;92.10
56046;DHT22;41913;51.030;3.706;2022-12-20T12:23:18;19.50;92.10
56046;DHT22;41913;51.030;3.706;2022-12-20T12:25:46;19.50;92.10
56046;DHT22;41913;51.030;3.706;2022-12-20T12:28:12;19.50;92.10
56046;DHT22;41913;51.030;3.706;2022-12-20T12:30:40;19.50;92.10
56046;DHT22;41913;51.030;3.706;2022-12-20T12:33:19;19.50;92.10
56046;DHT22;41913;51.030;3.706;2022-12-20T12:43:47;19.50;92.00
56046;DHT22;41913;51.030;3.706;2022-12-20T12:46:35;19.50;92.00
56046;DHT22;41913;51.030;3.706;2022-12-20T12:49:10;19.50;92.00
56046;DHT22;41913;51.030;3.706;2022-12-20T12:51:37;19.50;92.00
56046;DHT22;41913;51.030;3.706;2022-12-20T12:54:16;19.50;92.00
56046;DHT22;41913;51.030;3.706;2022-12-20T12:56:48;19.50;92.00
56046;DHT22;41913;51.030;3.706;2022-12-20T12:59:19;19.50;92.00
56046;DHT22;41913;51.030;3.706;2022-12-20T13:01:47;19.50;92.00
56046;DHT22;41913;51.030;3.706;2022-12-20T13:11:41;19.50;91.90
56046;DHT22;41913;51.030;3.706;2022-12-20T13:16:35;19.50;91.90
56046;DHT22;41913;51.030;3.706;2022-12-20T13:19:14;19.60;91.90
56046;DHT22;41913;51.030;3.706;2022-12-20T13:21:41;19.50;91.90
56046;DHT22;41913;51.030;3.706;2022-12-20T13:26:53;19.50;91.90
56046;DHT22;41913;51.030;3.706;2022-12-20T13:29:25;19.60;91.90
56046;DHT22;41913;51.030;3.706;2022-12-20T13:31:52;19.50;91.90
56046;DHT22;41913;51.030;3.706;2022-12-20T13:37:02;19.60;92.00
56046;DHT22;41913;51.030;3.706;2022-12-20T13:39:30;19.60;92.00
56046;DHT22;41913;51.030;3.706;2022-12-20T13:42:15;19.70;92.10
56046;DHT22;41913;51.030;3.706;2022-12-20T13:44:44;19.70;92.10
56046;DHT22;41913;51.030;3.706;2022-12-20T13:49:37;19.70;92.10
56046;DHT22;41913;51.030;3.706;2022-12-20T13:54:50;19.60;92.10
56046;DHT22;41913;51.030;3.706;2022-12-20T13:57:26;19.60;92.10
56046;DHT22;41913;51.030;3.706;2022-12-20T13:59:52;19.70;92.20
56046;DHT22;41913;51.030;3.706;2022-12-20T14:02:20;19.70;92.20
56046;DHT22;41913;51.030;3.706;2022-12-20T14:04:50;19.70;92.10
56046;DHT22;41913;51.030;3.706;2022-12-20T14:07:17;19.70;92.10
56046;DHT22;41913;51.030;3.706;2022-12-20T14:09:44;19.70;92.10
56046;DHT22;41913;51.030;3.706;2022-12-20T14:12:14;19.60;92.10
56046;DHT22;41913;51.030;3.706;2022-12-20T14:14:44;19.60;92.10
56046;DHT22;41913;51.030;3.706;2022-12-20T14:17:29;19.60;92.10
56046;DHT22;41913;51.030;3.706;2022-12-20T14:20:03;19.60;92.10
56046;DHT22;41913;51.030;3.706;2022-12-20T14:22:29;19.60;92.10
56046;DHT22;41913;51.030;3.706;2022-12-20T14:24:54;19.60;92.10
56046;DHT22;41913;51.030;3.706;2022-12-20T14:27:20;19.70;92.10
56046;DHT22;41913;51.030;3.706;2022-12-20T14:29:46;19.70;92.10
56046;DHT22;41913;51.030;3.706;2022-12-20T14:32:19;19.60;92.00
56046;DHT22;41913;51.030;3.706;2022-12-20T14:34:45;19.60;92.00
56046;DHT22;41913;51.030;3.706;2022-12-20T14:40:13;19.60;92.10
56046;DHT22;41913;51.030;3.706;2022-12-20T14:42:40;19.60;92.10
56046;DHT22;41913;51.030;3.706;2022-12-20T14:47:34;19.70;92.10
56046;DHT22;41913;51.030;3.706;2022-12-20T14:50:00;19.60;92.00
56046;DHT22;41913;51.030;3.706;2022-12-20T14:52:36;19.70;92.10
56046;DHT22;41913;51.030;3.706;2022-12-20T14:57:47;19.60;92.00
56046;DHT22;41913;51.030;3.706;2022-12-20T15:07:55;19.60;92.10
56046;DHT22;41913;51.030;3.706;2022-12-20T15:10:21;19.60;92.00
56046;DHT22;41913;51.030;3.706;2022-12-20T15:12:47;19.70;92.10
56046;DHT22;41913;51.030;3.706;2022-12-20T15:15:13;19.70;92.10
56046;DHT22;41913;51.030;3.706;2022-12-20T15:17:40;19.70;92.10
56046;DHT22;41913;51.030;3.706;2022-12-20T15:20:10;19.70;92.10
56046;DHT22;41913;51.030;3.706;2022-12-20T15:22:36;19.60;92.10
56046;DHT22;41913;51.030;3.706;2022-12-20T15:25:04;19.60;92.10
56046;DHT22;41913;51.030;3.706;2022-12-20T15:27:30;19.60;92.10
56046;DHT22;41913;51.030;3.706;2022-12-20T15:29:57;19.70;92.10
56046;DHT22;41913;51.030;3.706;2022-12-20T15:32:23;19.70;92.10
56046;DHT22;41913;51.030;3.706;2022-12-20T15:34:50;19.70;92.10
56046;DHT22;41913;51.030;3.706;2022-12-20T15:37:15;19.70;92.10
56046;DHT22;41913;51.030;3.706;2022-12-20T15:39:41;19.70;92.10
56046;DHT22;41913;51.030;3.706;2022-12-20T15:42:09;19.70;92.10
56046;DHT22;41913;51.030;3.706;2022-12-20T15:44:35;19.70;92.10
56046;DHT22;41913;51.030;3.706;2022-12-20T15:47:02;19.70;92.10
56046;DHT22;41913;51.030;3.706;2022-12-20T15:49:28;19.70;92.10
56046;DHT22;41913;51.030;3.706;2022-12-20T15:51:54;19.70;92.10
56046;DHT22;41913;51.030;3.706;2022-12-20T15:54:31;19.70;92.10
56046;DHT22;41913;51.030;3.706;2022-12-20T15:56:58;19.80;92.20
56046;DHT22;41913;51.030;3.706;2022-12-20T15:59:24;19.80;92.10
56046;DHT22;41913;51.030;3.706;2022-12-20T16:01:50;19.80;92.20
56046;DHT22;41913;51.030;3.706;2022-12-20T16:04:16;19.70;92.10
56046;DHT22;41913;51.030;3.706;2022-12-20T16:06:43;19.70;92.20
56046;DHT22;41913;51.030;3.706;2022-12-20T16:09:09;19.80;92.20
56046;DHT22;41913;51.030;3.706;2022-12-20T16:11:35;19.70;92.20
56046;DHT22;41913;51.030;3.706;2022-12-20T16:14:00;19.80;92.20
56046;DHT22;41913;51.030;3.706;2022-12-20T16:16:27;19.80;92.20
56046;DHT22;41913;51.030;3.706;2022-12-20T16:18:53;19.80;92.20
56046;DHT22;41913;51.030;3.706;2022-12-20T16:21:20;19.80;92.20
56046;DHT22;41913;51.030;3.706;2022-12-20T16:23:46;19.80;92.10
56046;DHT22;41913;51.030;3.706;2022-12-20T16:26:12;19.80;92.10
56046;DHT22;41913;51.030;3.706;2022-12-20T16:28:38;19.80;92.10
56046;DHT22;41913;51.030;3.706;2022-12-20T16:31:08;19.80;92.10
56046;DHT22;41913;51.030;3.706;2022-12-20T16:33:34;19.80;92.10
56046;DHT22;41913;51.030;3.706;2022-12-20T16:35:59;19.80;92.00
56046;DHT22;41913;51.030;3.706;2022-12-20T16:38:26;19.90;92.00
56046;DHT22;41913;51.030;3.706;2022-12-20T16:40:51;19.90;92.00
56046;DHT22;41913;51.030;3.706;2022-12-20T16:43:17;19.90;91.90
56046;DHT22;41913;51.030;3.706;2022-12-20T16:45:42;19.90;91.90
56046;DHT22;41913;51.030;3.706;2022-12-20T16:48:09;19.90;91.90
56046;DHT22;41913;51.030;3.706;2022-12-20T16:50:34;19.90;91.80
56046;DHT22;41913;51.030;3.706;2022-12-20T16:53:06;19.90;91.80
56046;DHT22;41913;51.030;3.706;2022-12-20T16:55:33;19.90;91.80
56046;DHT22;41913;51.030;3.706;2022-12-20T16:57:58;19.90;91.80
56046;DHT22;41913;51.030;3.706;2022-12-20T17:00:24;19.90;91.70
56046;DHT22;41913;51.030;3.706;2022-12-20T17:02:51;19.90;91.70
56046;DHT22;41913;51.030;3.706;2022-12-20T17:05:26;20.00;91.70
56046;DHT22;41913;51.030;3.706;2022-12-20T17:07:52;20.00;91.70
56046;DHT22;41913;51.030;3.706;2022-12-20T17:10:18;20.00;91.60
56046;DHT22;41913;51.030;3.706;2022-12-20T17:12:44;19.90;91.60
56046;DHT22;41913;51.030;3.706;2022-12-20T17:15:20;19.90;91.60
56046;DHT22;41913;51.030;3.706;2022-12-20T17:17:47;20.00;91.60
56046;DHT22;41913;51.030;3.706;2022-12-20T17:20:13;20.00;91.60
56046;DHT22;41913;51.030;3.706;2022-12-20T17:22:39;20.00;91.50
56046;DHT22;41913;51.030;3.706;2022-12-20T17:25:05;20.00;91.50
56046;DHT22;41913;51.030;3.706;2022-12-20T17:27:30;20.00;91.50
56046;DHT22;41913;51.030;3.706;2022-12-20T17:29:57;20.00;91.50
56046;DHT22;41913;51.030;3.706;2022-12-20T17:32:23;20.00;91.50
56046;DHT22;41913;51.030;3.706;2022-12-20T17:34:50;20.00;91.50
56046;DHT22;41913;51.030;3.706;2022-12-20T17:37:15;20.00;91.50
56046;DHT22;41913;51.030;3.706;2022-12-20T17:39:42;20.00;91.50
56046;DHT22;41913;51.030;3.706;2022-12-20T17:42:08;20.00;91.40
56046;DHT22;41913;51.030;3.706;2022-12-20T17:44:37;20.10;91.40
56046;DHT22;41913;51.030;3.706;2022-12-20T17:47:03;20.10;91.40
56046;DHT22;41913;51.030;3.706;2022-12-20T17:49:28;20.10;91.40